Latest Weather Observations for Edenhope

IDV60801

Issued at 5:05 pm EDT Friday 31 October 2014 (issued every 30 minutes, with the page automatically refreshed every 10 minutes)

About weather observations | Map of weather stations | Latest weather observations for VIC | Other Formats
Station Details ID: 079099 Name: EDENHOPE AIRPORT Lat: -37.02 Lon: 141.27 Height: 155.0 m
Data from the previous 72 hours. | See also: Recent months at Edenhope
Date/Time
EDT
Temp
°C
App
Temp
°C
Dew
Point
Rel
Hum
%
Delta-T
°C
Wind Press
QNH
hPa
Press
MSL
hPa
Rain
since 9 am
mm
Dir
 
Spd
km/h
Gust
km/h
Spd
kts
Gust
kts
31/05:00pm 32.7 25.7 1.7 14 15.6 WNW 28 44 15 24 - - 0.0
31/04:30pm 33.5 25.4 1.3 13 16.2 W 33 46 18 25 - - 0.0
31/04:21pm 33.6 26.5 1.4 13 16.2 NW 28 48 15 26 - - 0.0
31/04:00pm 32.7 24.9 1.7 14 15.6 NW 32 44 17 24 - - 0.0
31/03:38pm 33.6 26.7 2.4 14 16.0 NW 28 48 15 26 - - 0.0
31/03:30pm 33.0 26.0 2.0 14 15.7 NW 28 46 15 25 - - 0.0
31/03:15pm 31.4 24.4 1.7 15 14.8 NNW 28 50 15 27 - - 0.0
31/03:00pm 31.4 24.7 1.7 15 14.8 NNW 26 41 14 22 - - 0.0
31/02:44pm 31.8 24.6 1.0 14 15.2 NW 28 48 15 26 - - 0.0
31/02:30pm 31.8 25.7 2.9 16 14.8 NW 24 37 13 20 - - 0.0
31/02:07pm 32.3 25.4 2.4 15 15.2 NNW 28 50 15 27 - - 0.0
31/02:00pm 31.6 24.7 2.7 16 14.7 NNW 28 44 15 24 - - 0.0
31/01:48pm 31.1 24.2 2.3 16 14.5 NNW 28 48 15 26 - - 0.0
31/01:30pm 30.5 23.1 1.9 16 14.3 N 30 48 16 26 - - 0.0
31/01:20pm 31.4 23.9 3.4 17 14.4 N 32 50 17 27 - - 0.0
31/01:00pm 29.8 21.7 1.3 16 14.0 N 33 48 18 26 - - 0.0
31/12:56pm 30.4 23.4 1.8 16 14.2 N 28 48 15 26 - - 0.0
31/12:30pm 28.9 22.1 3.0 19 13.0 N 28 44 15 24 - - 0.0
31/12:00pm 27.8 21.1 3.5 21 12.2 N 28 39 15 21 - - 0.0
31/11:56am 28.2 21.8 5.1 23 12.0 N 28 46 15 25 - - 0.0
31/11:30am 26.6 20.2 5.0 25 11.1 N 28 43 15 23 - - 0.0
31/11:00am 25.8 19.1 5.4 27 10.5 N 30 43 16 23 - - 0.0
31/10:30am 23.9 19.0 7.1 34 8.8 NNE 22 35 12 19 - - 0.0
31/10:00am 21.4 17.1 8.0 42 7.0 NNE 20 33 11 18 - - 0.0
31/09:30am 21.6 17.5 8.5 43 7.0 NNE 20 33 11 18 - - 0.0
31/09:00am 18.1 14.6 8.7 54 4.9 NE 17 26 9 14 - - 0.0
31/08:30am 15.9 12.5 9.3 65 3.4 NNE 17 24 9 13 - - 0.0
31/08:00am 13.9 10.8 8.7 71 2.6 NNE 15 24 8 13 - - 0.0
31/07:30am 13.0 10.2 8.7 75 2.2 NE 13 19 7 10 - - 0.0
31/07:00am 12.6 9.9 8.9 78 1.9 ENE 13 19 7 10 - - 0.0
31/06:30am 12.1 9.4 8.9 81 1.6 ENE 13 17 7 9 - - 0.0
31/06:00am 12.1 9.8 8.9 81 1.6 ENE 11 17 6 9 - - 0.0
31/05:30am 11.5 8.4 8.9 84 1.3 ENE 15 19 8 10 - - 0.0
31/05:00am 11.0 7.9 8.9 87 1.0 E 15 19 8 10 - - 0.0
31/04:30am 10.8 9.3 9.1 89 0.9 E 7 11 4 6 - - 0.0
31/04:00am 10.9 8.3 9.2 89 0.9 E 13 15 7 8 - - 0.0
31/03:30am 10.8 8.5 9.1 89 0.9 E 11 15 6 8 - - 0.0
31/03:00am 10.9 8.3 9.2 89 0.9 E 13 15 7 8 - - 0.0
31/02:30am 11.2 9.0 9.3 88 1.0 E 11 17 6 9 - - 0.0
31/02:00am 11.2 9.4 9.3 88 1.0 E 9 13 5 7 - - 0.0
31/01:30am 11.2 9.6 8.9 86 1.2 ESE 7 9 4 5 - - 0.0
31/01:00am 11.3 9.7 8.9 85 1.2 ESE 7 9 4 5 - - 0.0
31/12:30am 11.9 10.3 8.9 82 1.5 ESE 7 11 4 6 - - 0.0
31/12:00am 12.6 11.0 8.9 78 1.9 ESE 7 11 4 6 - - 0.0
 
Date/Time
EDT
Temp
°C
App
Temp
°C
Dew
Point
Rel
Hum
%
Delta-T
°C
Wind Press
QNH
hPa
Press
MSL
hPa
Rain
since 9 am
mm
Dir
 
Spd
km/h
Gust
km/h
Spd
kts
Gust
kts
30/11:30pm 12.9 11.3 8.8 76 2.1 SSE 7 9 4 5 - - 0.0
30/11:00pm 13.7 11.8 9.2 74 2.3 S 9 13 5 7 - - 0.0
30/10:30pm 14.1 12.6 9.1 72 2.6 SSW 7 9 4 5 - - 0.0
30/10:00pm 14.9 13.4 9.1 68 3.0 SSW 7 11 4 6 - - 0.0
30/09:30pm 14.9 13.3 8.6 66 3.2 SW 7 11 4 6 - - 0.0
30/09:00pm 15.6 14.0 7.9 60 3.9 WSW 6 7 3 4 - - 0.0
30/08:30pm 17.4 16.9 8.0 54 4.8 CALM 0 0 0 0 - - 0.0
30/08:00pm 19.2 18.0 7.9 48 5.8 SW 4 6 2 3 - - 0.0
30/07:30pm 20.9 19.1 7.9 43 6.8 W 7 9 4 5 - - 0.0
30/07:00pm 21.9 20.0 7.7 40 7.4 WSW 7 13 4 7 - - 0.0
30/06:30pm 22.1 19.3 7.1 38 7.8 W 11 15 6 8 - - 0.0
30/06:00pm 22.3 19.6 7.3 38 7.8 W 11 19 6 10 - - 0.0
30/05:30pm 22.9 20.3 7.8 38 8.0 W 11 17 6 9 - - 0.0
30/05:00pm 23.1 20.4 9.1 41 7.6 WSW 13 24 7 13 - - 0.0
30/04:30pm 23.1 19.9 8.4 39 7.9 WSW 15 26 8 14 - - 0.0
30/04:00pm 22.2 19.3 8.3 41 7.4 W 13 20 7 11 - - 0.0
30/03:30pm 21.6 18.1 8.8 44 6.8 WSW 17 26 9 14 - - 0.0
30/03:00pm 21.0 17.8 8.3 44 6.7 WSW 15 20 8 11 - - 0.0
30/02:30pm 20.6 18.8 7.9 44 6.6 WNW 7 19 4 10 - - 0.0
30/02:00pm 20.0 16.7 8.0 46 6.2 WNW 15 22 8 12 - - 0.0
30/01:30pm 19.0 16.1 8.1 49 5.7 W 13 24 7 13 - - 0.0
30/01:00pm 17.8 15.1 7.5 51 5.2 WSW 11 17 6 9 - - 0.0
30/12:30pm 18.6 16.4 8.0 50 5.5 W 9 19 5 10 - - 0.0
30/12:00pm 17.3 14.3 7.6 53 4.9 W 13 24 7 13 - - 0.0
30/11:30am 16.1 13.5 7.6 57 4.3 W 11 20 6 11 - - 0.0
30/11:00am 15.2 12.2 7.5 60 3.8 WSW 13 19 7 10 - - 0.0
30/10:30am 15.0 12.0 7.8 62 3.6 W 13 20 7 11 - - 0.0
30/10:00am 14.7 12.0 7.5 62 3.6 WSW 11 17 6 9 - - 0.0
30/09:30am 14.0 12.1 7.5 65 3.2 W 7 17 4 9 - - 0.0
30/09:00am 13.3 11.4 7.5 68 2.9 W 7 11 4 6 - - 0.0
30/08:30am 12.7 11.3 8.8 77 2.0 NNW 6 9 3 5 - - 0.0
30/08:00am 10.9 10.5 9.7 92 0.6 WNW 2 4 1 2 - - 0.0
30/07:30am 10.0 9.5 9.5 97 0.3 WSW 2 6 1 3 - - 0.0
30/07:00am 9.5 9.3 9.2 98 0.1 CALM 0 0 0 0 - - 0.0
30/06:30am 9.3 8.3 9.0 98 0.1 SW 4 7 2 4 - - 0.0
30/06:00am 9.1 8.5 8.8 98 0.1 SW 2 7 1 4 - - 0.0
30/05:30am 9.0 8.0 8.7 98 0.1 NNE 4 6 2 3 - - 0.0
30/05:00am 8.8 7.7 8.5 98 0.1 N 4 4 2 2 - - 0.0
30/04:30am 8.3 6.7 8.0 98 0.1 SW 6 7 3 4 - - 0.0
30/04:00am 7.5 6.1 7.2 98 0.1 WSW 4 4 2 2 - - 0.0
30/03:30am 6.7 5.9 6.3 97 0.2 CALM 0 2 0 1 - - 0.0
30/03:00am 6.8 6.0 6.4 97 0.2 CALM 0 0 0 0 - - 0.0
30/02:30am 6.5 5.6 5.9 96 0.3 CALM 0 0 0 0 - - 0.0
30/02:00am 7.2 6.4 6.6 96 0.3 CALM 0 0 0 0 - - 0.0
30/01:30am 7.5 6.7 6.6 94 0.4 CALM 0 0 0 0 - - 0.0
30/01:00am 8.5 7.9 7.4 93 0.5 CALM 0 0 0 0 - - 0.0
30/12:30am 9.4 9.0 8.3 93 0.5 CALM 0 0 0 0 - - 0.0
30/12:00am 9.8 9.2 8.9 94 0.4 SW 2 4 1 2 - - 0.0
 
Date/Time
EDT
Temp
°C
App
Temp
°C
Dew
Point
Rel
Hum
%
Delta-T
°C
Wind Press
QNH
hPa
Press
MSL
hPa
Rain
since 9 am
mm
Dir
 
Spd
km/h
Gust
km/h
Spd
kts
Gust
kts
29/11:30pm 10.4 9.5 9.2 92 0.6 SSW 4 6 2 3 - - 0.0
29/11:00pm 11.2 10.7 9.3 88 1.0 SSW 2 4 1 2 - - 0.0
29/10:30pm 12.0 10.7 9.9 87 1.1 SSW 7 11 4 6 - - 0.0
29/10:00pm 12.4 10.7 10.0 85 1.2 SW 9 13 5 7 - - 0.0
29/09:30pm 12.9 11.7 9.7 81 1.6 SW 6 9 3 5 - - 0.0
29/09:00pm 13.6 11.9 10.0 79 1.9 SSW 9 15 5 8 - - 0.0
29/08:30pm 13.8 12.2 8.8 72 2.5 SW 7 9 4 5 - - 0.0
29/08:00pm 15.1 13.5 8.6 65 3.3 SW 7 11 4 6 - - 0.0
29/07:30pm 16.8 14.1 9.0 60 4.1 WSW 13 20 7 11 - - 0.0
29/07:00pm 17.6 14.2 9.0 57 4.5 WSW 17 26 9 14 - - 0.0
29/06:30pm 18.3 13.9 9.1 55 4.8 WSW 22 32 12 17 - - 0.0
29/06:00pm 19.5 15.4 8.8 50 5.6 WSW 20 30 11 16 - - 0.0
29/05:30pm 20.3 15.8 8.6 47 6.2 W 22 30 12 16 - - 0.0
29/05:00pm 20.8 16.7 8.8 46 6.4 W 20 32 11 17 - - 0.0
29/04:30pm 20.9 16.6 9.2 47 6.3 W 22 33 12 18 - - 0.0
29/04:00pm 21.4 16.8 8.0 42 7.0 W 22 35 12 19 - - 0.0
29/03:30pm 20.3 17.4 8.3 46 6.3 W 13 22 7 12 - - 0.0
29/03:00pm 20.7 16.8 8.7 46 6.4 WNW 19 30 10 16 - - 0.0
29/02:30pm 20.3 16.5 9.2 49 5.9 W 19 28 10 15 - - 0.0
29/02:00pm 19.3 16.4 9.5 53 5.2 W 15 22 8 12 - - 0.0
29/01:30pm 19.3 15.6 9.5 53 5.2 NW 19 24 10 13 - - 0.0
29/01:00pm 17.6 13.7 8.7 56 4.6 NW 19 26 10 14 - - 0.0
29/12:30pm 17.1 13.5 8.3 56 4.5 W 17 24 9 13 - - 0.0
29/12:00pm 16.9 13.7 8.3 57 4.4 NW 15 24 8 13 - - 0.0
29/11:30am 16.0 12.3 8.0 59 4.1 WNW 17 28 9 15 - - 0.0
29/11:00am 15.6 12.7 8.1 61 3.8 WNW 13 20 7 11 - - 0.0
29/10:30am 15.1 11.8 7.9 62 3.6 WNW 15 24 8 13 - - 0.0
29/10:00am 14.6 11.6 7.6 63 3.5 WNW 13 19 7 10 - - 0.0
29/09:30am 13.7 11.8 7.5 66 3.1 WNW 7 19 4 10 - - 0.0
29/09:00am 13.2 11.1 8.1 71 2.5 WNW 9 13 5 7 - - 0.0
29/08:30am 12.2 10.3 8.9 80 1.7 WNW 9 11 5 6 - - 0.0
29/08:00am 10.8 9.6 9.4 91 0.7 NW 6 9 3 5 - - 0.0
29/07:30am 10.3 8.9 9.5 95 0.4 NNW 7 13 4 7 - - 0.0
29/07:00am 9.9 9.0 9.3 96 0.3 NNW 4 6 2 3 - - 0.0
29/06:30am 9.4 8.8 8.8 96 0.3 NNW 2 4 1 2 - - 0.0
29/06:00am 9.2 7.7 8.3 94 0.4 NW 6 7 3 4 - - 0.0
29/05:30am 10.4 9.6 9.5 94 0.5 WNW 4 7 2 4 - - 0.0
29/05:00am 10.3 8.9 9.4 94 0.5 W 7 9 4 5 - - 0.0
29/04:30am 10.0 9.0 8.8 92 0.6 WSW 4 4 2 2 - - 0.0
29/04:00am 10.3 9.3 8.9 91 0.7 WSW 4 6 2 3 - - 0.0
29/03:30am 10.9 9.6 9.2 89 0.9 WNW 6 7 3 4 - - 0.0
29/03:00am 11.0 9.1 9.1 88 1.0 W 9 13 5 7 - - 0.0
29/02:30am 10.7 9.3 8.8 88 0.9 W 6 7 3 4 - - 0.0
29/02:00am 10.3 9.7 8.9 91 0.7 WNW 2 4 1 2 - - 0.0
29/01:30am 10.2 9.9 8.8 91 0.7 CALM 0 0 0 0 - - 0.0
29/01:00am 9.5 9.1 8.1 91 0.7 CALM 0 0 0 0 - - 0.0
29/12:30am 10.0 9.3 8.4 90 0.8 WSW 2 4 1 2 - - 0.0
29/12:00am 10.5 9.4 8.4 87 1.0 W 4 6 2 3 - - 0.0
 
Date/Time
EDT
Temp
°C
App
Temp
°C
Dew
Point
Rel
Hum
%
Delta-T
°C
Wind Press
QNH
hPa
Press
MSL
hPa
Rain
since 9 am
mm
Dir
 
Spd
km/h
Gust
km/h
Spd
kts
Gust
kts
28/11:30pm 10.4 8.8 8.2 86 1.1 WSW 6 7 3 4 - - 0.0
28/11:00pm 11.0 8.9 8.1 82 1.4 WSW 9 11 5 6 - - 0.0
28/10:30pm 12.2 9.3 8.3 77 1.9 WSW 13 19 7 10 - - 0.0
28/10:00pm 12.2 9.7 8.3 77 1.9 SW 11 20 6 11 - - 0.0
28/09:30pm 10.3 8.4 6.6 78 1.7 SW 6 7 3 4 - - 0.0
28/09:00pm 11.4 9.6 7.3 76 2.0 SW 6 7 3 4 - - 0.0
28/08:30pm 11.5 10.2 7.6 77 1.9 WSW 4 6 2 3 - - 0.0
28/08:00pm 13.0 10.8 7.9 71 2.5 WSW 9 15 5 8 - - 0.0
28/07:30pm 13.7 10.0 8.1 69 2.8 SW 17 26 9 14 - - 0.0
28/07:00pm 14.0 10.5 8.6 70 2.7 SW 17 26 9 14 - - 0.0
28/06:30pm 15.2 10.4 8.7 65 3.3 SW 24 37 13 20 - - 0.0
28/06:00pm 16.5 11.3 7.2 54 4.7 WSW 24 35 13 19 - - 0.0
28/05:30pm 17.3 12.0 6.8 50 5.2 WSW 24 37 13 20 - - 0.0

Other Formats:

Comma delimited format used in spreadsheet applications
http://www.bom.gov.au/fwo/IDV60801/IDV60801.95832.axf

JavaScript Object Notation format (JSON) in row-major order
http://www.bom.gov.au/fwo/IDV60801/IDV60801.95832.json